North Kortright, New York
Current Conditions -  °F | °C
As of 5:15 PM on Friday 24 Oct 2014 (Local Time) from KNY0 Reporting Station
Overcast Overcast  
Wind Chill: 53°   Ceiling: 4600
Heat Index: 53°   Visibility: 10mi
Dew Point: 43°   Wind: 8mph
Humidity: 70%   Direction: 350°N
Pressure: 29.81"   Gusts: NA
Location:  42.4723°N, 74.8433°W
Report Text: KNY0 242115Z AUTO 35007KT 10SM BKN046 OVC055 11/06 A2981 RMK AO2 T01140062
Loading
Personal Weather Stations






























Interactive Weather Map
Tropical Storm Tracking
New forecast layout! Learn more

10-Day Weather Forecast

Advertisements
Track Severe Weather on mobile